createdAt,value
2022-10-05T13:53:44.561Z,10.02
2022-10-05T13:57:19.635Z,8.32
2022-10-05T14:00:30.707Z,5.60
2022-10-05T14:04:16.961Z,8.27
2022-10-05T14:07:39.572Z,9.80
2022-10-05T14:10:56.216Z,8.68
2022-10-05T14:14:27.485Z,6.13
2022-10-05T14:17:44.987Z,4.40
2022-10-05T14:21:07.246Z,6.03
2022-10-05T14:24:44.023Z,5.30
2022-10-05T14:28:06.844Z,6.93
2022-10-05T14:36:01.511Z,7.15
2022-10-05T14:39:42.293Z,11.40
2022-10-05T14:43:31.440Z,9.10
2022-10-05T15:15:25.926Z,11.20
2022-10-05T15:18:57.183Z,8.93
2022-10-05T15:22:24.665Z,8.10
2022-10-05T15:25:56.713Z,7.50
2022-10-05T15:29:26.094Z,8.27
2022-10-05T15:32:56.282Z,6.15
2022-10-05T15:36:24.780Z,5.57
2022-10-05T15:39:59.718Z,8.27
2022-10-05T15:43:20.030Z,7.65
2022-10-05T15:46:49.581Z,9.23
2022-10-05T15:50:11.355Z,8.70
2022-10-05T15:53:52.791Z,7.87
2022-10-05T15:57:46.401Z,5.80
2022-10-05T16:01:10.744Z,10.45
2022-10-05T16:04:36.900Z,7.22
2022-10-05T16:08:13.172Z,5.18
2022-10-05T16:11:43.761Z,8.97
2022-10-05T16:15:26.395Z,9.30
2022-10-05T16:18:46.114Z,5.22
2022-10-05T16:22:24.481Z,9.07
2022-10-05T16:26:55.031Z,7.25
2022-10-05T16:29:57.692Z,9.17
2022-10-05T16:33:21.669Z,6.57
2022-10-05T16:37:10.056Z,5.45
2022-10-05T16:40:52.185Z,9.23
2022-10-05T16:44:25.379Z,7.07
2022-10-05T16:48:13.474Z,8.50
2022-10-05T16:51:32.763Z,8.23
2022-10-05T16:54:49.512Z,7.72
2022-10-05T16:58:29.381Z,6.80
2022-10-05T17:01:59.073Z,6.93
2022-10-05T17:05:22.699Z,7.97
2022-10-05T17:08:57.959Z,6.17
2022-10-05T17:12:40.020Z,5.72
2022-10-05T17:16:15.790Z,8.02
2022-10-05T17:19:33.035Z,7.53
2022-10-05T17:22:54.414Z,6.93
2022-10-05T17:26:54.859Z,8.30
2022-10-05T17:31:00.360Z,8.23
2022-10-05T17:35:18.376Z,7.35
2022-10-05T17:38:51.532Z,10.48
2022-10-05T17:42:26.667Z,8.37
2022-10-05T17:46:08.650Z,8.10
2022-10-05T17:50:12.386Z,10.65
2022-10-05T17:54:05.860Z,15.75
2022-10-05T17:57:25.522Z,9.85
2022-10-05T18:00:59.206Z,10.00
2022-10-05T18:04:19.973Z,10.37
2022-10-05T18:07:30.664Z,11.23
2022-10-05T18:11:09.373Z,9.95
2022-10-05T18:14:23.961Z,11.32
2022-10-05T18:17:57.398Z,10.50
2022-10-05T18:21:22.695Z,12.77
2022-10-05T18:24:53.156Z,8.95
2022-10-05T18:28:11.619Z,9.95
2022-10-05T18:31:39.363Z,9.85
2022-10-05T18:35:11.981Z,11.17
2022-10-05T18:39:01.620Z,15.83
2022-10-05T18:42:27.024Z,11.85
2022-10-05T18:45:46.108Z,11.52
2022-10-05T18:49:05.792Z,12.82
2022-10-05T18:52:57.746Z,12.20
2022-10-05T18:56:30.767Z,10.97
2022-10-05T18:59:53.626Z,16.27
2022-10-05T19:03:14.194Z,10.20
2022-10-05T19:07:02.191Z,17.27
2022-10-05T19:10:25.523Z,10.70
2022-10-05T19:14:06.113Z,11.83
2022-10-05T19:17:29.750Z,13.68
2022-10-05T19:21:17.356Z,13.85
2022-10-05T19:25:09.848Z,13.00
2022-10-05T19:28:44.635Z,11.50
2022-10-05T19:32:03.743Z,11.97
2022-10-05T19:35:27.351Z,13.82
2022-10-05T19:38:45.636Z,12.43
2022-10-05T19:42:25.414Z,14.93
2022-10-05T19:45:41.470Z,11.83
2022-10-05T19:48:57.289Z,14.17
2022-10-05T19:52:14.530Z,16.17
2022-10-05T19:55:37.457Z,13.52
2022-10-05T19:58:54.656Z,12.35
2022-10-05T20:02:15.437Z,16.53
2022-10-05T20:05:22.977Z,13.93
2022-10-05T20:08:31.897Z,14.18
2022-10-05T20:11:49.671Z,17.13
2022-10-05T20:15:25.747Z,14.95
2022-10-05T20:19:07.000Z,17.33
2022-10-05T20:22:35.056Z,14.47
2022-10-05T20:25:37.748Z,15.40
2022-10-05T20:28:40.830Z,17.48
2022-10-05T20:31:43.988Z,17.90
2022-10-05T20:34:47.999Z,18.83
2022-10-05T20:37:50.812Z,17.37
2022-10-05T20:40:53.878Z,16.35
2022-10-05T20:43:56.522Z,15.57
2022-10-05T20:47:01.381Z,16.85
2022-10-05T20:50:07.619Z,14.60
2022-10-05T20:53:12.115Z,16.00
2022-10-05T20:56:14.988Z,16.90
2022-10-05T20:59:18.797Z,17.63
2022-10-05T21:02:21.614Z,15.25
2022-10-05T21:05:24.407Z,17.70
2022-10-05T21:08:27.711Z,17.93
2022-10-05T21:11:30.680Z,19.83
2022-10-05T21:14:34.459Z,16.30
2022-10-05T21:17:39.327Z,15.95
2022-10-05T21:20:48.699Z,17.03
2022-10-05T21:23:52.001Z,16.20
2022-10-05T21:26:57.718Z,18.52
2022-10-05T21:30:00.852Z,17.95
2022-10-05T21:33:03.586Z,15.23
2022-10-05T21:36:06.263Z,15.63
2022-10-05T21:39:08.835Z,17.93
2022-10-05T21:42:11.540Z,17.40
2022-10-05T21:45:14.364Z,20.23
2022-10-05T21:48:19.370Z,18.77
2022-10-05T21:51:28.092Z,19.73
2022-10-05T21:54:32.823Z,18.67
2022-10-05T21:57:36.379Z,17.00
2022-10-05T22:00:39.165Z,20.65
2022-10-05T22:03:42.194Z,21.40
2022-10-05T22:06:44.993Z,21.87
2022-10-05T22:09:48.713Z,19.93
2022-10-05T22:12:51.585Z,21.67
2022-10-05T22:15:56.303Z,21.80
2022-10-05T22:19:05.279Z,24.27
2022-10-05T22:22:11.813Z,24.40
2022-10-05T22:25:14.808Z,24.93
2022-10-05T22:28:18.118Z,26.42
2022-10-05T22:31:21.170Z,24.25
2022-10-05T22:34:23.769Z,23.50
2022-10-05T22:37:26.514Z,23.77
2022-10-05T22:40:29.246Z,20.23
2022-10-05T22:43:31.910Z,21.48
2022-10-05T22:46:34.607Z,23.02
2022-10-05T22:49:37.246Z,22.08
2022-10-05T22:52:40.505Z,22.33
2022-10-05T22:55:43.482Z,17.60
2022-10-05T22:58:46.695Z,19.70
2022-10-05T23:01:49.531Z,23.98
2022-10-05T23:04:52.216Z,22.17
2022-10-05T23:07:54.873Z,22.40
2022-10-05T23:11:08.928Z,21.87
2022-10-05T23:14:11.880Z,20.65
2022-10-05T23:17:19.387Z,21.13
2022-10-05T23:20:24.733Z,19.90
2022-10-05T23:23:27.605Z,22.03
2022-10-05T23:26:31.307Z,21.57
2022-10-05T23:29:34.068Z,21.52
2022-10-05T23:32:44.567Z,22.52
2022-10-05T23:35:47.202Z,19.63
2022-10-05T23:38:50.642Z,20.50
2022-10-05T23:41:53.690Z,23.87
2022-10-05T23:44:56.270Z,20.00
2022-10-05T23:47:58.816Z,20.08
2022-10-05T23:51:01.769Z,20.85
2022-10-05T23:54:04.430Z,21.10
2022-10-05T23:57:07.226Z,21.00
